createdAt,value
2023-04-02T00:00:03.594Z,598.05
2023-04-02T00:00:14.607Z,597.96
2023-04-02T00:00:25.604Z,597.60
2023-04-02T00:00:36.622Z,597.85
2023-04-02T00:00:47.606Z,597.90
2023-04-02T00:00:58.602Z,597.72
2023-04-02T00:01:09.604Z,597.60
2023-04-02T00:01:20.609Z,597.78
2023-04-02T00:01:31.609Z,597.55
2023-04-02T00:01:42.632Z,598.05
2023-04-02T00:01:54.634Z,597.69
2023-04-02T00:02:06.633Z,597.54
2023-04-02T00:02:18.671Z,597.52
2023-04-02T00:02:29.730Z,597.17
2023-04-02T00:02:41.614Z,597.40
2023-04-02T00:02:53.631Z,597.40
2023-04-02T00:03:04.637Z,597.25
2023-04-02T00:03:15.664Z,597.31
2023-04-02T00:03:26.661Z,597.31
2023-04-02T00:03:37.694Z,597.37
2023-04-02T00:03:48.632Z,597.35
2023-04-02T00:03:59.686Z,597.21
2023-04-02T00:04:10.627Z,597.05
2023-04-02T00:04:21.636Z,597.22
2023-04-02T00:04:33.590Z,597.15
2023-04-02T00:04:44.555Z,597.01
2023-04-02T00:04:55.572Z,597.02
2023-04-02T00:05:06.598Z,597.00
2023-04-02T00:05:17.599Z,596.88
2023-04-02T00:05:28.591Z,596.93
2023-04-02T00:05:39.596Z,597.14
2023-04-02T00:05:51.035Z,597.02
2023-04-02T00:06:01.579Z,597.08
2023-04-02T00:06:12.579Z,596.86
2023-04-02T00:06:23.568Z,596.87
2023-04-02T00:06:34.559Z,596.96
2023-04-02T00:06:45.579Z,596.88
2023-04-02T00:06:56.648Z,597.06
2023-04-02T00:07:08.610Z,596.73
2023-04-02T00:07:19.608Z,596.82
2023-04-02T00:07:30.637Z,596.54
2023-04-02T00:07:41.557Z,597.14
2023-04-02T00:07:52.650Z,596.74
2023-04-02T00:08:04.639Z,596.68
2023-04-02T00:08:16.590Z,596.57
2023-04-02T00:08:27.590Z,596.74
2023-04-02T00:08:38.573Z,596.73
2023-04-02T00:08:49.571Z,596.73
2023-04-02T00:09:00.586Z,596.57
2023-04-02T00:09:11.572Z,596.60
2023-04-02T00:09:22.566Z,596.48
2023-04-02T00:09:33.583Z,596.57
2023-04-02T00:09:44.570Z,596.53
2023-04-02T00:09:55.585Z,596.72
2023-04-02T00:10:06.577Z,596.79
2023-04-02T00:10:17.572Z,596.65
2023-04-02T00:10:28.561Z,596.77
2023-04-02T00:10:39.575Z,596.72
2023-04-02T00:10:50.567Z,596.69
2023-04-02T00:11:01.555Z,596.68
2023-04-02T00:11:12.660Z,596.73
2023-04-02T00:11:24.628Z,596.55
2023-04-02T00:11:36.588Z,596.82
2023-04-02T00:11:47.554Z,596.57
2023-04-02T00:11:58.593Z,596.56
2023-04-02T00:12:09.584Z,596.57
2023-04-02T00:12:20.585Z,596.41
2023-04-02T00:12:31.591Z,596.49
2023-04-02T00:12:42.585Z,596.40
2023-04-02T00:12:53.579Z,596.51
2023-04-02T00:13:04.576Z,596.53
2023-04-02T00:13:15.570Z,596.48
2023-04-02T00:13:26.589Z,596.50
2023-04-02T00:13:37.579Z,596.48
2023-04-02T00:13:48.578Z,596.52
2023-04-02T00:13:59.579Z,596.55
2023-04-02T00:14:10.560Z,596.53
2023-04-02T00:14:21.559Z,596.51
2023-04-02T00:14:32.568Z,596.49
2023-04-02T00:14:43.556Z,596.35
2023-04-02T00:14:54.641Z,596.35
2023-04-02T00:15:06.597Z,596.42
2023-04-02T00:15:17.594Z,596.36
2023-04-02T00:15:28.596Z,596.27
2023-04-02T00:15:39.595Z,596.39
2023-04-02T00:15:50.592Z,596.26
2023-04-02T00:16:02.601Z,596.36
2023-04-02T00:16:13.623Z,596.50
2023-04-02T00:16:25.624Z,596.24
2023-04-02T00:16:36.682Z,596.31
2023-04-02T00:16:48.659Z,595.97
2023-04-02T00:16:59.621Z,596.34
2023-04-02T00:17:11.622Z,596.30
2023-04-02T00:17:23.589Z,596.05
2023-04-02T00:17:34.573Z,596.16
2023-04-02T00:17:45.562Z,596.33
2023-04-02T00:17:56.597Z,596.38
2023-04-02T00:18:07.634Z,595.92
2023-04-02T00:18:19.623Z,596.00
2023-04-02T00:18:31.635Z,596.07
2023-04-02T00:18:43.604Z,595.96
2023-04-02T00:18:54.602Z,596.04
2023-04-02T00:19:05.602Z,596.07
2023-04-02T00:19:16.602Z,595.95
2023-04-02T00:19:27.606Z,596.07
2023-04-02T00:19:38.611Z,595.84
2023-04-02T00:19:49.601Z,595.84
2023-04-02T00:20:00.594Z,595.93
2023-04-02T00:20:11.593Z,595.83
2023-04-02T00:20:22.597Z,596.07
2023-04-02T00:20:33.579Z,595.83
2023-04-02T00:20:44.579Z,595.49
2023-04-02T00:20:55.577Z,595.59
2023-04-02T00:21:06.571Z,595.81
2023-04-02T00:21:17.585Z,595.64
2023-04-02T00:21:28.588Z,595.73
2023-04-02T00:21:40.022Z,595.60
2023-04-02T00:21:50.556Z,595.70
2023-04-02T00:22:01.572Z,595.55
2023-04-02T00:22:12.571Z,595.62
2023-04-02T00:22:23.572Z,595.41
2023-04-02T00:22:34.580Z,595.53
2023-04-02T00:22:45.611Z,595.34
2023-04-02T00:22:56.605Z,595.34
2023-04-02T00:23:08.603Z,595.05
2023-04-02T00:23:19.589Z,594.96
2023-04-02T00:23:30.589Z,595.44
2023-04-02T00:23:41.587Z,595.13
2023-04-02T00:23:52.572Z,595.42
2023-04-02T00:24:03.568Z,595.27
2023-04-02T00:24:14.646Z,595.27
2023-04-02T00:24:26.632Z,594.96
2023-04-02T00:24:38.591Z,594.87
2023-04-02T00:24:50.622Z,594.99
2023-04-02T00:25:02.638Z,594.75
2023-04-02T00:25:14.627Z,595.00
2023-04-02T00:25:26.610Z,594.88
2023-04-02T00:25:37.607Z,594.71
2023-04-02T00:25:48.604Z,594.75
2023-04-02T00:25:59.599Z,594.62
2023-04-02T00:26:10.606Z,594.52
2023-04-02T00:26:21.606Z,594.63
2023-04-02T00:26:32.605Z,594.60
2023-04-02T00:26:43.605Z,594.36
2023-04-02T00:26:54.601Z,594.62
2023-04-02T00:27:05.601Z,594.47
2023-04-02T00:27:16.599Z,594.14
2023-04-02T00:27:27.591Z,594.16
2023-04-02T00:27:38.587Z,594.14
2023-04-02T00:27:49.584Z,594.23
2023-04-02T00:28:00.594Z,594.18
2023-04-02T00:28:11.601Z,594.19
2023-04-02T00:28:22.603Z,594.10
2023-04-02T00:28:34.588Z,593.95
2023-04-02T00:28:45.584Z,594.11
2023-04-02T00:28:56.592Z,593.99
2023-04-02T00:29:07.601Z,594.08
2023-04-02T00:29:18.616Z,593.97
2023-04-02T00:29:30.584Z,594.16
2023-04-02T00:29:41.582Z,594.03
2023-04-02T00:29:52.585Z,593.97
2023-04-02T00:30:03.575Z,593.93
2023-04-02T00:30:14.594Z,593.99
2023-04-02T00:30:25.607Z,593.77
2023-04-02T00:30:36.601Z,593.77
2023-04-02T00:30:48.595Z,593.78
2023-04-02T00:30:59.610Z,593.62
2023-04-02T00:31:10.608Z,593.58
2023-04-02T00:31:21.637Z,593.51
2023-04-02T00:31:33.639Z,593.73
2023-04-02T00:31:45.687Z,593.71
2023-04-02T00:31:56.625Z,593.61
2023-04-02T00:32:08.676Z,593.65
2023-04-02T00:32:19.712Z,593.54
2023-04-02T00:32:31.685Z,593.77
2023-04-02T00:32:43.617Z,593.87
2023-04-02T00:32:55.614Z,593.62
2023-04-02T00:33:07.771Z,593.43
2023-04-02T00:33:18.602Z,593.52
2023-04-02T00:33:29.603Z,593.61
2023-04-02T00:33:40.631Z,593.47
2023-04-02T00:33:52.600Z,593.63
2023-04-02T00:34:03.589Z,593.69
2023-04-02T00:34:14.590Z,593.54
2023-04-02T00:34:25.579Z,593.63
2023-04-02T00:34:36.573Z,593.69
2023-04-02T00:34:47.562Z,593.34
2023-04-02T00:34:58.555Z,593.48
2023-04-02T00:35:09.579Z,593.71
2023-04-02T00:35:20.578Z,593.61
2023-04-02T00:35:31.573Z,593.54
2023-04-02T00:35:42.636Z,593.37
2023-04-02T00:35:54.626Z,593.33
2023-04-02T00:36:06.641Z,593.38
2023-04-02T00:36:17.629Z,593.37
2023-04-02T00:36:28.567Z,593.53
2023-04-02T00:36:39.571Z,593.14
2023-04-02T00:36:50.614Z,593.24
2023-04-02T00:37:01.613Z,593.58
2023-04-02T00:37:13.605Z,593.14
2023-04-02T00:37:24.607Z,593.30
2023-04-02T00:37:35.602Z,593.17
2023-04-02T00:37:46.600Z,593.20
2023-04-02T00:37:57.597Z,593.36
2023-04-02T00:38:08.588Z,593.32
2023-04-02T00:38:19.577Z,593.14
2023-04-02T00:38:30.574Z,593.13
2023-04-02T00:38:41.570Z,593.20
2023-04-02T00:38:52.660Z,593.23
2023-04-02T00:39:04.647Z,593.42
2023-04-02T00:39:16.616Z,593.34
2023-04-02T00:39:27.627Z,593.10
2023-04-02T00:39:39.588Z,592.66
2023-04-02T00:39:50.585Z,593.22
2023-04-02T00:40:01.590Z,593.14
2023-04-02T00:40:12.589Z,593.16
2023-04-02T00:40:23.592Z,593.25
2023-04-02T00:40:34.607Z,593.25
2023-04-02T00:40:45.596Z,593.32
2023-04-02T00:40:56.599Z,593.07
2023-04-02T00:41:07.598Z,593.03
2023-04-02T00:41:18.599Z,593.05
2023-04-02T00:41:29.599Z,593.23
2023-04-02T00:41:40.597Z,593.07
2023-04-02T00:41:51.590Z,593.26
2023-04-02T00:42:02.585Z,593.21
2023-04-02T00:42:13.593Z,592.58
2023-04-02T00:42:24.590Z,592.80
2023-04-02T00:42:35.598Z,592.94
2023-04-02T00:42:46.588Z,592.90
2023-04-02T00:42:57.590Z,593.06
2023-04-02T00:43:08.585Z,593.01
2023-04-02T00:43:19.589Z,593.07
2023-04-02T00:43:30.591Z,592.80
2023-04-02T00:43:41.590Z,592.71
2023-04-02T00:43:52.594Z,592.58
2023-04-02T00:44:03.633Z,592.93
2023-04-02T00:44:15.651Z,592.67
2023-04-02T00:44:26.586Z,592.93
2023-04-02T00:44:37.583Z,592.82
2023-04-02T00:44:48.602Z,592.89
2023-04-02T00:44:59.610Z,592.65
2023-04-02T00:45:11.586Z,592.76
2023-04-02T00:45:22.592Z,592.83
2023-04-02T00:45:33.897Z,592.95
2023-04-02T00:45:45.607Z,592.64
2023-04-02T00:45:56.683Z,592.67
2023-04-02T00:46:07.703Z,592.62
2023-04-02T00:46:18.667Z,592.59
2023-04-02T00:46:29.627Z,592.70
2023-04-02T00:46:40.568Z,592.70
2023-04-02T00:46:51.575Z,592.70
2023-04-02T00:47:02.576Z,592.72
2023-04-02T00:47:13.568Z,592.60
2023-04-02T00:47:24.577Z,592.47
2023-04-02T00:47:35.619Z,592.05
2023-04-02T00:47:47.617Z,592.50
2023-04-02T00:47:58.658Z,592.40
2023-04-02T00:48:09.587Z,592.41
2023-04-02T00:48:20.598Z,592.51
2023-04-02T00:48:31.599Z,592.52
2023-04-02T00:48:43.604Z,592.48
2023-04-02T00:48:54.598Z,592.30
2023-04-02T00:49:05.597Z,592.34
2023-04-02T00:49:16.582Z,592.39
2023-04-02T00:49:27.579Z,592.02
2023-04-02T00:49:38.591Z,592.59
2023-04-02T00:49:49.595Z,592.46
2023-04-02T00:50:01.593Z,592.09
2023-04-02T00:50:12.579Z,592.06
2023-04-02T00:50:23.636Z,592.14
2023-04-02T00:50:35.601Z,592.36
2023-04-02T00:50:46.591Z,592.26
2023-04-02T00:50:57.582Z,592.02
2023-04-02T00:51:08.578Z,591.96
2023-04-02T00:51:19.597Z,591.84
2023-04-02T00:51:30.614Z,592.16
2023-04-02T00:51:41.612Z,591.52
2023-04-02T00:51:53.578Z,591.86
2023-04-02T00:52:04.580Z,591.94
2023-04-02T00:52:15.579Z,591.78
2023-04-02T00:52:26.577Z,591.72
2023-04-02T00:52:37.575Z,591.53
2023-04-02T00:52:48.585Z,591.52
2023-04-02T00:52:59.597Z,591.67
2023-04-02T00:53:10.601Z,591.78
2023-04-02T00:53:21.613Z,591.63
2023-04-02T00:53:32.606Z,591.36
2023-04-02T00:53:43.608Z,591.47
2023-04-02T00:53:54.614Z,591.49
2023-04-02T00:54:05.613Z,591.38
2023-04-02T00:54:16.607Z,591.24
2023-04-02T00:54:27.610Z,591.28
2023-04-02T00:54:38.606Z,591.61
2023-04-02T00:54:49.604Z,591.26
2023-04-02T00:55:00.602Z,591.03
2023-04-02T00:55:11.617Z,590.97
2023-04-02T00:55:23.588Z,591.14
2023-04-02T00:55:34.733Z,591.11
2023-04-02T00:55:46.589Z,591.18
2023-04-02T00:55:57.604Z,591.15
2023-04-02T00:56:08.599Z,591.19
2023-04-02T00:56:19.599Z,591.20
2023-04-02T00:56:30.596Z,591.10
2023-04-02T00:56:41.593Z,591.29
2023-04-02T00:56:52.618Z,591.21
2023-04-02T00:57:03.651Z,590.87
2023-04-02T00:57:15.659Z,591.01
2023-04-02T00:57:27.653Z,590.99
2023-04-02T00:57:39.641Z,591.02
2023-04-02T00:57:51.597Z,591.13
2023-04-02T00:58:02.602Z,590.76
2023-04-02T00:58:13.597Z,590.86
2023-04-02T00:58:24.597Z,591.08
2023-04-02T00:58:35.594Z,590.77
2023-04-02T00:58:47.591Z,591.02
2023-04-02T00:58:58.608Z,590.94
2023-04-02T00:59:09.621Z,590.71
2023-04-02T00:59:21.582Z,590.67
2023-04-02T00:59:32.586Z,591.04
2023-04-02T00:59:43.641Z,591.04
2023-04-02T00:59:55.614Z,591.07
2023-04-02T01:00:07.590Z,590.70
2023-04-02T01:00:18.621Z,590.72
2023-04-02T01:00:30.597Z,590.61
2023-04-02T01:00:41.606Z,590.99
2023-04-02T01:00:52.614Z,590.77
2023-04-02T01:01:03.633Z,590.82
2023-04-02T01:01:15.631Z,591.17
2023-04-02T01:01:26.670Z,591.02
2023-04-02T01:01:37.672Z,590.68
2023-04-02T01:01:49.619Z,590.78
2023-04-02T01:02:01.619Z,590.61
2023-04-02T01:02:12.593Z,590.83
2023-04-02T01:02:23.643Z,590.69
2023-04-02T01:02:34.618Z,590.53
2023-04-02T01:02:45.635Z,590.54
2023-04-02T01:02:56.658Z,590.66
2023-04-02T01:03:08.651Z,590.68
2023-04-02T01:03:19.773Z,590.58
2023-04-02T01:03:31.687Z,590.71
2023-04-02T01:03:42.731Z,590.88
2023-04-02T01:03:53.635Z,590.55
2023-04-02T01:04:04.621Z,590.64
2023-04-02T01:04:15.583Z,590.80
2023-04-02T01:04:27.650Z,590.62
2023-04-02T01:04:38.592Z,590.80
2023-04-02T01:04:50.595Z,590.66
2023-04-02T01:05:02.721Z,590.81
2023-04-02T01:05:13.586Z,590.85
2023-04-02T01:05:24.584Z,590.64
2023-04-02T01:05:35.985Z,590.65
2023-04-02T01:05:46.599Z,590.81
2023-04-02T01:05:58.580Z,590.84
2023-04-02T01:06:09.579Z,591.02
2023-04-02T01:06:20.576Z,590.95
2023-04-02T01:06:31.597Z,591.09
2023-04-02T01:06:42.601Z,591.01
2023-04-02T01:06:53.604Z,590.89
2023-04-02T01:07:04.608Z,590.82
2023-04-02T01:07:15.608Z,590.63
2023-04-02T01:07:26.604Z,590.69
2023-04-02T01:07:37.606Z,590.97
2023-04-02T01:07:48.619Z,590.93
2023-04-02T01:08:00.584Z,590.70
2023-04-02T01:08:11.583Z,590.71
2023-04-02T01:08:22.595Z,590.95
2023-04-02T01:08:33.602Z,590.93
2023-04-02T01:08:44.607Z,590.72
2023-04-02T01:08:55.612Z,590.97
2023-04-02T01:09:07.582Z,590.88
2023-04-02T01:09:19.584Z,590.99
2023-04-02T01:09:31.591Z,590.95
2023-04-02T01:09:42.627Z,591.12
2023-04-02T01:09:54.612Z,591.05
2023-04-02T01:10:06.613Z,591.09
2023-04-02T01:10:18.607Z,591.17
2023-04-02T01:10:30.589Z,591.05
2023-04-02T01:10:41.601Z,591.34
2023-04-02T01:10:53.585Z,591.17
2023-04-02T01:11:04.584Z,591.21
2023-04-02T01:11:15.594Z,591.32
2023-04-02T01:11:26.598Z,591.10
2023-04-02T01:11:37.610Z,591.29
2023-04-02T01:11:49.594Z,591.24
2023-04-02T01:12:00.559Z,591.18
2023-04-02T01:12:11.564Z,591.20
2023-04-02T01:12:22.573Z,591.14
2023-04-02T01:12:33.576Z,591.03
2023-04-02T01:12:44.583Z,591.21
2023-04-02T01:12:55.637Z,590.91
2023-04-02T01:13:07.600Z,590.89
2023-04-02T01:13:18.624Z,591.26
2023-04-02T01:13:30.606Z,591.17
2023-04-02T01:13:42.585Z,591.59
2023-04-02T01:13:53.582Z,591.42
2023-04-02T01:14:04.591Z,591.39
2023-04-02T01:14:15.597Z,591.23
2023-04-02T01:14:26.597Z,591.24
2023-04-02T01:14:37.596Z,591.42
2023-04-02T01:14:48.585Z,591.28
2023-04-02T01:14:59.591Z,591.12
2023-04-02T01:15:10.598Z,591.26
2023-04-02T01:15:21.607Z,591.30
2023-04-02T01:15:32.685Z,591.16
2023-04-02T01:15:44.647Z,590.89
2023-04-02T01:15:56.694Z,591.42
2023-04-02T01:16:08.667Z,591.07
2023-04-02T01:16:19.621Z,591.16
2023-04-02T01:16:30.931Z,590.79
2023-04-02T01:16:41.586Z,591.18
2023-04-02T01:16:52.589Z,591.05
2023-04-02T01:17:03.578Z,591.10
2023-04-02T01:17:14.569Z,591.12
2023-04-02T01:17:25.612Z,591.05
2023-04-02T01:17:37.608Z,590.98
2023-04-02T01:17:49.632Z,590.82
2023-04-02T01:18:00.599Z,590.70
2023-04-02T01:18:11.626Z,590.67
2023-04-02T01:18:23.572Z,590.66
2023-04-02T01:18:34.576Z,590.60
2023-04-02T01:18:45.570Z,590.72
2023-04-02T01:18:56.568Z,590.90
2023-04-02T01:19:07.562Z,590.90
2023-04-02T01:19:18.548Z,590.89
2023-04-02T01:19:29.561Z,590.76
2023-04-02T01:19:40.571Z,590.62
2023-04-02T01:19:51.563Z,590.56
2023-04-02T01:20:02.576Z,590.64
2023-04-02T01:20:13.568Z,590.51
2023-04-02T01:20:24.558Z,590.14
2023-04-02T01:20:35.641Z,590.72
2023-04-02T01:20:47.617Z,590.76
2023-04-02T01:20:59.597Z,590.62
2023-04-02T01:21:11.572Z,590.47
2023-04-02T01:21:22.571Z,590.55
2023-04-02T01:21:33.567Z,590.53
2023-04-02T01:21:44.566Z,590.37
2023-04-02T01:21:55.563Z,590.40
2023-04-02T01:22:06.567Z,590.34
2023-04-02T01:22:17.566Z,590.20
2023-04-02T01:22:28.573Z,590.10
2023-04-02T01:22:39.568Z,590.18
2023-04-02T01:22:50.566Z,590.21
2023-04-02T01:23:01.570Z,590.08
2023-04-02T01:23:12.566Z,589.96
2023-04-02T01:23:23.644Z,590.14
2023-04-02T01:23:35.605Z,590.12
2023-04-02T01:23:46.607Z,590.02
2023-04-02T01:23:57.601Z,590.14
2023-04-02T01:24:08.624Z,590.25
2023-04-02T01:24:19.612Z,590.15
2023-04-02T01:24:30.614Z,590.07
2023-04-02T01:24:41.614Z,589.96
2023-04-02T01:24:52.618Z,590.17
2023-04-02T01:25:03.622Z,590.15
2023-04-02T01:25:15.625Z,590.04
2023-04-02T01:25:26.595Z,589.96
2023-04-02T01:25:37.765Z,589.96
2023-04-02T01:25:49.596Z,589.84
2023-04-02T01:26:00.591Z,589.76
2023-04-02T01:26:11.589Z,589.75
2023-04-02T01:26:22.613Z,589.63
2023-04-02T01:26:33.613Z,589.55
2023-04-02T01:26:44.604Z,589.67
2023-04-02T01:26:55.614Z,589.75
2023-04-02T01:27:07.618Z,589.94
2023-04-02T01:27:18.650Z,589.85
2023-04-02T01:27:30.615Z,589.55
2023-04-02T01:27:42.603Z,589.76
2023-04-02T01:27:53.620Z,589.51
2023-04-02T01:28:04.619Z,589.80
2023-04-02T01:28:15.615Z,589.89
2023-04-02T01:28:27.611Z,589.86
2023-04-02T01:28:39.589Z,589.61
2023-04-02T01:28:50.581Z,589.63
2023-04-02T01:29:01.607Z,589.35
2023-04-02T01:29:12.610Z,589.12
2023-04-02T01:29:23.628Z,589.52
2023-04-02T01:29:34.618Z,589.79
2023-04-02T01:29:45.628Z,589.62
2023-04-02T01:29:56.626Z,589.51
2023-04-02T01:30:08.613Z,589.30
2023-04-02T01:30:19.612Z,589.66
2023-04-02T01:30:30.606Z,589.59
2023-04-02T01:30:41.609Z,589.57
2023-04-02T01:30:52.639Z,589.03
2023-04-02T01:31:04.712Z,589.35
2023-04-02T01:31:16.652Z,589.34
2023-04-02T01:31:27.716Z,589.24
2023-04-02T01:31:39.655Z,589.50
2023-04-02T01:31:50.607Z,589.04
2023-04-02T01:32:01.586Z,589.40
2023-04-02T01:32:12.593Z,589.31
2023-04-02T01:32:23.596Z,589.16
2023-04-02T01:32:34.620Z,588.95
2023-04-02T01:32:46.616Z,588.92
2023-04-02T01:32:58.646Z,589.10
2023-04-02T01:33:10.602Z,589.14
2023-04-02T01:33:21.600Z,589.25
2023-04-02T01:33:32.612Z,589.15
2023-04-02T01:33:44.594Z,589.04
2023-04-02T01:33:55.602Z,589.11
2023-04-02T01:34:06.630Z,589.13
2023-04-02T01:34:18.606Z,588.85
2023-04-02T01:34:29.601Z,588.86
2023-04-02T01:34:40.595Z,588.70
2023-04-02T01:34:51.594Z,589.08
2023-04-02T01:35:02.597Z,588.84
2023-04-02T01:35:13.592Z,588.99
2023-04-02T01:35:24.603Z,588.74
2023-04-02T01:35:35.736Z,588.57
2023-04-02T01:35:46.617Z,588.53
2023-04-02T01:35:58.665Z,588.50
2023-04-02T01:36:10.705Z,588.85
2023-04-02T01:36:22.654Z,588.73
2023-04-02T01:36:33.593Z,588.35
2023-04-02T01:36:44.603Z,588.41
2023-04-02T01:36:55.610Z,588.27
2023-04-02T01:37:06.620Z,588.64
2023-04-02T01:37:17.630Z,588.44
2023-04-02T01:37:29.604Z,588.54
2023-04-02T01:37:40.594Z,588.43
2023-04-02T01:37:51.617Z,588.35
2023-04-02T01:38:02.618Z,588.16
2023-04-02T01:38:13.611Z,587.94
2023-04-02T01:38:25.591Z,587.98
2023-04-02T01:38:36.597Z,588.12
2023-04-02T01:38:47.615Z,587.96
2023-04-02T01:38:58.624Z,587.80
2023-04-02T01:39:10.600Z,588.08
2023-04-02T01:39:21.609Z,587.84
2023-04-02T01:39:32.612Z,587.71
2023-04-02T01:39:43.638Z,587.71
2023-04-02T01:39:55.606Z,587.88
2023-04-02T01:40:06.615Z,587.78
2023-04-02T01:40:18.589Z,587.74
2023-04-02T01:40:29.592Z,587.79
2023-04-02T01:40:40.658Z,587.66
2023-04-02T01:40:51.575Z,587.75
2023-04-02T01:41:02.575Z,587.27
2023-04-02T01:41:13.570Z,587.52
2023-04-02T01:41:24.569Z,587.58
2023-04-02T01:41:35.582Z,587.48
2023-04-02T01:41:46.577Z,587.47
2023-04-02T01:41:57.576Z,587.41
2023-04-02T01:42:08.584Z,587.62
2023-04-02T01:42:19.609Z,587.49
2023-04-02T01:42:30.606Z,587.38
2023-04-02T01:42:41.604Z,587.42
2023-04-02T01:42:52.603Z,587.28
2023-04-02T01:43:04.584Z,587.26
2023-04-02T01:43:15.577Z,587.14
2023-04-02T01:43:26.579Z,587.31
2023-04-02T01:43:37.586Z,587.31
2023-04-02T01:43:48.584Z,587.43
2023-04-02T01:43:59.588Z,587.35
2023-04-02T01:44:10.601Z,587.20
2023-04-02T01:44:21.594Z,587.20
2023-04-02T01:44:32.607Z,587.09
2023-04-02T01:44:43.608Z,587.02
2023-04-02T01:44:54.603Z,587.01
2023-04-02T01:45:05.600Z,587.10
2023-04-02T01:45:16.619Z,587.08
2023-04-02T01:45:28.574Z,587.08
2023-04-02T01:45:39.577Z,586.90
2023-04-02T01:45:50.572Z,586.84
2023-04-02T01:46:01.592Z,586.73
2023-04-02T01:46:12.607Z,586.67
2023-04-02T01:46:23.650Z,586.59
2023-04-02T01:46:34.636Z,586.74
2023-04-02T01:46:46.647Z,586.62
2023-04-02T01:46:57.585Z,586.43
2023-04-02T01:47:08.599Z,586.67
2023-04-02T01:47:19.595Z,586.48
2023-04-02T01:47:30.606Z,586.42
2023-04-02T01:47:41.649Z,586.52
2023-04-02T01:47:52.621Z,586.34
2023-04-02T01:48:03.695Z,586.38
2023-04-02T01:48:15.569Z,586.25
2023-04-02T01:48:26.570Z,586.26
2023-04-02T01:48:37.573Z,586.16
2023-04-02T01:48:48.567Z,586.18
2023-04-02T01:48:59.566Z,586.10
2023-04-02T01:49:10.566Z,586.05
2023-04-02T01:49:21.591Z,585.94
2023-04-02T01:49:32.582Z,585.89
2023-04-02T01:49:43.587Z,585.76
2023-04-02T01:49:54.584Z,585.75
2023-04-02T01:50:05.615Z,585.79
2023-04-02T01:50:17.585Z,585.80
2023-04-02T01:50:28.585Z,585.65
2023-04-02T01:50:39.600Z,585.69
2023-04-02T01:50:50.620Z,585.41
2023-04-02T01:51:01.604Z,585.68
2023-04-02T01:51:12.602Z,585.38
2023-04-02T01:51:23.600Z,585.40
2023-04-02T01:51:34.635Z,585.42
2023-04-02T01:51:46.606Z,585.48
2023-04-02T01:51:57.613Z,585.53
2023-04-02T01:52:08.617Z,585.25
2023-04-02T01:52:19.619Z,585.47
2023-04-02T01:52:31.585Z,585.04
2023-04-02T01:52:42.580Z,585.54
2023-04-02T01:52:53.567Z,585.30
2023-04-02T01:53:04.559Z,585.37
2023-04-02T01:53:15.560Z,585.03
2023-04-02T01:53:26.644Z,584.97
2023-04-02T01:53:38.598Z,585.03
2023-04-02T01:53:49.610Z,585.03
2023-04-02T01:54:00.606Z,584.81
2023-04-02T01:54:11.612Z,584.99
2023-04-02T01:54:22.606Z,585.00
2023-04-02T01:54:33.624Z,585.05
2023-04-02T01:54:44.622Z,584.99
2023-04-02T01:54:56.588Z,584.68
2023-04-02T01:55:07.582Z,584.54
2023-04-02T01:55:18.585Z,584.58
2023-04-02T01:55:29.590Z,584.84
2023-04-02T01:55:40.582Z,584.36
2023-04-02T01:55:51.607Z,584.47
2023-04-02T01:56:02.601Z,584.65
2023-04-02T01:56:14.583Z,584.69
2023-04-02T01:56:25.586Z,584.63
2023-04-02T01:56:36.578Z,584.33
2023-04-02T01:56:47.622Z,584.61
2023-04-02T01:56:59.613Z,584.40
2023-04-02T01:57:11.624Z,584.21
2023-04-02T01:57:23.628Z,584.37
2023-04-02T01:57:34.598Z,584.12
2023-04-02T01:57:45.636Z,584.26
2023-04-02T01:57:57.607Z,584.05
2023-04-02T01:58:08.602Z,584.17
2023-04-02T01:58:19.603Z,584.12
2023-04-02T01:58:30.606Z,584.24
2023-04-02T01:58:41.613Z,584.10
2023-04-02T01:58:52.611Z,584.13
2023-04-02T01:59:03.616Z,584.02
2023-04-02T01:59:15.587Z,584.01
2023-04-02T01:59:26.585Z,584.04
2023-04-02T01:59:37.580Z,584.16
2023-04-02T01:59:48.591Z,583.69
2023-04-02T01:59:59.578Z,584.33
2023-04-02T02:00:10.585Z,584.02
2023-04-02T02:00:21.578Z,584.13
2023-04-02T02:00:32.611Z,583.72
2023-04-02T02:00:43.680Z,583.77
2023-04-02T02:00:55.688Z,583.85
2023-04-02T02:01:07.655Z,583.69
2023-04-02T02:01:19.741Z,583.86
2023-04-02T02:01:30.566Z,583.65
2023-04-02T02:01:41.606Z,583.89
2023-04-02T02:01:52.637Z,583.91
2023-04-02T02:02:04.682Z,583.96
2023-04-02T02:02:15.653Z,583.79
2023-04-02T02:02:26.690Z,583.75
2023-04-02T02:02:38.765Z,583.79
2023-04-02T02:02:50.678Z,583.67
2023-04-02T02:03:02.584Z,583.36
2023-04-02T02:03:13.623Z,583.75
2023-04-02T02:03:25.614Z,583.63
2023-04-02T02:03:36.608Z,583.54
2023-04-02T02:03:47.602Z,583.29
2023-04-02T02:03:58.604Z,583.52
2023-04-02T02:04:09.616Z,583.86
2023-04-02T02:04:20.607Z,583.57
2023-04-02T02:04:31.610Z,583.75
2023-04-02T02:04:42.597Z,583.49
2023-04-02T02:04:53.597Z,583.51
2023-04-02T02:05:04.590Z,583.56
2023-04-02T02:05:15.606Z,583.15
2023-04-02T02:05:26.616Z,583.24
2023-04-02T02:05:38.584Z,583.27
2023-04-02T02:05:49.569Z,583.27
2023-04-02T02:06:00.583Z,583.40
2023-04-02T02:06:11.592Z,583.59
2023-04-02T02:06:22.590Z,583.53
2023-04-02T02:06:34.601Z,583.17
2023-04-02T02:06:45.611Z,583.47
2023-04-02T02:06:56.612Z,583.33
2023-04-02T02:07:07.624Z,583.40
2023-04-02T02:07:18.622Z,583.56
2023-04-02T02:07:29.615Z,583.52
2023-04-02T02:07:41.614Z,583.28
2023-04-02T02:07:52.608Z,583.23
2023-04-02T02:08:03.619Z,583.20
2023-04-02T02:08:15.634Z,583.37
2023-04-02T02:08:27.604Z,583.25
2023-04-02T02:08:38.602Z,583.14
2023-04-02T02:08:49.597Z,583.21
2023-04-02T02:09:01.583Z,583.21
2023-04-02T02:09:12.593Z,583.38
2023-04-02T02:09:23.616Z,583.18
2023-04-02T02:09:35.640Z,583.37
2023-04-02T02:09:47.597Z,583.31
2023-04-02T02:09:58.578Z,583.23
2023-04-02T02:10:09.593Z,583.15
2023-04-02T02:10:20.597Z,582.96
2023-04-02T02:10:31.583Z,582.80
2023-04-02T02:10:42.585Z,583.21
2023-04-02T02:10:53.597Z,582.90
2023-04-02T02:11:04.601Z,582.91
2023-04-02T02:11:15.607Z,583.04
2023-04-02T02:11:26.621Z,582.90
2023-04-02T02:11:37.624Z,582.80
2023-04-02T02:11:49.592Z,582.87
2023-04-02T02:12:00.587Z,582.83
2023-04-02T02:12:11.591Z,583.06
2023-04-02T02:12:22.583Z,583.10
2023-04-02T02:12:33.581Z,582.92
2023-04-02T02:12:44.605Z,582.82
2023-04-02T02:12:55.599Z,582.56
2023-04-02T02:13:06.604Z,582.65
2023-04-02T02:13:17.615Z,582.88
2023-04-02T02:13:29.631Z,582.82
2023-04-02T02:13:42.187Z,582.92
2023-04-02T02:13:53.592Z,582.55
2023-04-02T02:14:04.584Z,582.79
2023-04-02T02:14:15.575Z,582.47
2023-04-02T02:14:26.606Z,582.50
2023-04-02T02:14:37.611Z,582.65
2023-04-02T02:14:48.614Z,582.36
2023-04-02T02:14:59.617Z,582.07
2023-04-02T02:15:10.618Z,582.12
2023-04-02T02:15:22.589Z,582.56
2023-04-02T02:15:33.979Z,582.16
2023-04-02T02:15:44.574Z,582.51
2023-04-02T02:15:55.603Z,582.03
2023-04-02T02:16:06.615Z,582.19
2023-04-02T02:16:18.631Z,582.27
2023-04-02T02:16:30.609Z,582.20
2023-04-02T02:16:41.783Z,582.23
2023-04-02T02:16:53.633Z,582.12
2023-04-02T02:17:05.636Z,582.13
2023-04-02T02:17:17.621Z,582.13
2023-04-02T02:17:28.632Z,582.43
2023-04-02T02:17:40.643Z,582.02
2023-04-02T02:17:52.736Z,581.94
2023-04-02T02:18:04.630Z,581.88
2023-04-02T02:18:16.596Z,581.82
2023-04-02T02:18:27.630Z,581.72
2023-04-02T02:18:39.631Z,581.53
2023-04-02T02:18:51.603Z,581.88
2023-04-02T02:19:02.618Z,581.84
2023-04-02T02:19:13.619Z,581.64
2023-04-02T02:19:24.619Z,581.58
2023-04-02T02:19:35.625Z,581.65
2023-04-02T02:19:46.581Z,581.60
2023-04-02T02:19:57.576Z,581.54